createdAt,value
2019-06-20T00:00:01.449Z,72.01
2019-06-20T00:02:32.724Z,70.62
2019-06-20T00:05:03.979Z,71.02
2019-06-20T00:07:36.279Z,70.07
2019-06-20T00:10:08.554Z,69.45
2019-06-20T00:12:39.655Z,68.88
2019-06-20T00:15:10.866Z,68.83
2019-06-20T00:17:41.964Z,69.53
2019-06-20T00:20:13.223Z,68.61
2019-06-20T00:22:45.305Z,69.29
2019-06-20T00:25:16.466Z,69.37
2019-06-20T00:27:47.538Z,69.11
2019-06-20T00:30:18.955Z,69.08
2019-06-20T00:32:50.187Z,68.80
2019-06-20T00:35:21.477Z,69.07
2019-06-20T00:37:52.787Z,69.07
2019-06-20T00:40:24.014Z,69.52
2019-06-20T00:42:55.281Z,70.33
2019-06-20T00:45:27.463Z,70.89
2019-06-20T00:47:58.540Z,70.90
2019-06-20T00:50:29.603Z,71.12
2019-06-20T00:53:00.724Z,71.05
2019-06-20T00:55:32.022Z,71.38
2019-06-20T00:58:03.237Z,71.75
2019-06-20T01:00:34.297Z,70.84
2019-06-20T01:03:05.503Z,70.80
2019-06-20T01:05:36.710Z,71.58
2019-06-20T01:08:08.014Z,72.25
2019-06-20T01:10:39.219Z,72.66
2019-06-20T01:13:10.313Z,71.85
2019-06-20T01:15:41.588Z,71.19
2019-06-20T01:18:12.828Z,71.32
2019-06-20T01:20:44.031Z,71.83
2019-06-20T01:23:15.637Z,71.93
2019-06-20T01:25:47.044Z,71.67
2019-06-20T01:28:18.203Z,71.25
2019-06-20T01:30:49.641Z,70.27
2019-06-20T01:33:20.802Z,70.39
2019-06-20T01:35:52.890Z,70.96
2019-06-20T01:38:24.038Z,71.96
2019-06-20T01:40:55.055Z,71.95
2019-06-20T01:43:26.172Z,71.70
2019-06-20T01:45:57.199Z,72.14
2019-06-20T01:48:28.302Z,71.97
2019-06-20T01:51:00.396Z,71.75
2019-06-20T01:53:31.495Z,72.22
2019-06-20T01:56:02.815Z,71.96
2019-06-20T01:58:33.871Z,72.28
2019-06-20T02:01:05.312Z,71.62
2019-06-20T02:03:36.498Z,72.55
2019-06-20T02:06:07.654Z,73.27
2019-06-20T02:08:38.722Z,72.96
2019-06-20T02:11:10.122Z,72.73
2019-06-20T02:13:41.270Z,72.99
2019-06-20T02:16:12.587Z,73.00
2019-06-20T02:18:43.734Z,73.61
2019-06-20T02:21:15.939Z,74.38
2019-06-20T02:23:47.155Z,73.29
2019-06-20T02:26:18.421Z,72.77
2019-06-20T02:28:49.735Z,73.10
2019-06-20T02:31:21.204Z,73.17
2019-06-20T02:33:52.968Z,72.91
2019-06-20T02:36:24.109Z,73.83
2019-06-20T02:38:55.260Z,74.13
2019-06-20T02:41:26.444Z,74.25
2019-06-20T02:43:57.516Z,74.13
2019-06-20T02:46:28.692Z,73.92
2019-06-20T02:48:59.804Z,74.04
2019-06-20T02:51:31.637Z,74.15
2019-06-20T02:54:02.985Z,73.86
2019-06-20T02:56:34.076Z,74.18
2019-06-20T02:59:05.275Z,74.26
2019-06-20T03:01:36.358Z,74.04
2019-06-20T03:04:07.477Z,73.46
2019-06-20T03:06:38.706Z,73.26
2019-06-20T03:09:10.380Z,73.25
2019-06-20T03:11:41.443Z,73.36
2019-06-20T03:14:12.694Z,73.69
2019-06-20T03:16:43.850Z,73.73
2019-06-20T03:19:14.937Z,73.71
2019-06-20T03:21:46.046Z,74.04
2019-06-20T03:24:17.073Z,74.09
2019-06-20T03:26:48.507Z,73.67
2019-06-20T03:29:19.615Z,73.77
2019-06-20T03:31:50.721Z,73.90
2019-06-20T03:34:22.061Z,74.01
2019-06-20T03:36:53.219Z,74.22
2019-06-20T03:39:24.362Z,74.61
2019-06-20T03:41:56.084Z,73.97
2019-06-20T03:44:27.305Z,73.63
2019-06-20T03:46:58.391Z,73.74
2019-06-20T03:49:29.423Z,73.80
2019-06-20T03:52:00.477Z,73.92
2019-06-20T03:54:31.502Z,74.18
2019-06-20T03:57:02.601Z,74.62
2019-06-20T03:59:33.618Z,74.47
2019-06-20T04:02:04.758Z,74.57
2019-06-20T04:04:35.813Z,74.21
2019-06-20T04:07:07.938Z,74.05
2019-06-20T04:09:39.100Z,73.98
2019-06-20T04:12:10.210Z,73.92
2019-06-20T04:14:41.368Z,73.37
2019-06-20T04:17:12.428Z,72.83
2019-06-20T04:23:30.176Z,72.94
2019-06-20T04:26:01.276Z,72.31
2019-06-20T04:28:32.303Z,72.33
2019-06-20T04:31:03.344Z,71.29
2019-06-20T04:33:34.422Z,71.67
2019-06-20T04:36:05.642Z,71.64
2019-06-20T04:38:37.548Z,73.54
2019-06-20T04:41:08.685Z,73.78
2019-06-20T04:43:39.784Z,73.25
2019-06-20T04:46:20.572Z,73.26
2019-06-20T04:48:51.628Z,73.68
2019-06-20T04:51:22.693Z,74.96
2019-06-20T04:53:53.687Z,74.83
2019-06-20T04:56:24.816Z,74.62
2019-06-20T04:58:55.855Z,74.41
2019-06-20T05:01:26.928Z,73.15
2019-06-20T05:03:59.017Z,73.16
2019-06-20T05:06:30.146Z,73.03
2019-06-20T05:09:01.168Z,73.29
2019-06-20T05:11:33.889Z,73.08
2019-06-20T05:14:05.220Z,73.60
2019-06-20T05:16:36.350Z,73.47
2019-06-20T05:19:08.621Z,73.15
2019-06-20T05:21:40.621Z,73.25
2019-06-20T05:24:11.764Z,72.85
2019-06-20T05:26:42.879Z,72.32
2019-06-20T05:29:14.017Z,72.69
2019-06-20T05:31:45.077Z,72.63
2019-06-20T05:34:16.275Z,73.26
2019-06-20T05:36:47.338Z,73.12
2019-06-20T05:39:18.365Z,72.55
2019-06-20T05:41:50.424Z,73.09
2019-06-20T05:44:21.515Z,73.12
2019-06-20T05:47:08.522Z,73.12
2019-06-20T05:49:26.043Z,72.71
2019-06-20T05:51:57.205Z,72.27
2019-06-20T05:54:28.197Z,72.83
2019-06-20T05:57:03.186Z,72.69
2019-06-20T05:59:32.149Z,73.11
2019-06-20T06:02:03.327Z,73.32
2019-06-20T06:04:34.592Z,73.73
2019-06-20T06:07:06.201Z,74.25
2019-06-20T06:09:38.290Z,74.02
2019-06-20T06:12:09.818Z,73.50
2019-06-20T06:14:40.995Z,73.60
2019-06-20T06:17:12.278Z,74.64
2019-06-20T06:19:43.335Z,74.72
2019-06-20T06:22:14.400Z,75.29
2019-06-20T06:24:45.542Z,74.88
2019-06-20T06:27:17.723Z,73.18
2019-06-20T06:29:49.732Z,73.63
2019-06-20T06:32:20.899Z,72.73
2019-06-20T06:34:52.078Z,72.35
2019-06-20T06:37:23.196Z,72.14
2019-06-20T06:39:54.288Z,72.79
2019-06-20T06:42:25.521Z,72.38
2019-06-20T06:44:56.805Z,71.71
2019-06-20T06:47:27.829Z,71.86
2019-06-20T06:49:59.822Z,71.98
2019-06-20T06:52:31.036Z,72.05
2019-06-20T06:55:02.204Z,72.17
2019-06-20T06:57:33.227Z,71.11
2019-06-20T07:00:04.677Z,71.09
2019-06-20T07:02:35.817Z,71.12
2019-06-20T07:05:07.524Z,69.50
2019-06-20T07:07:39.954Z,70.33
2019-06-20T07:10:11.895Z,71.53
2019-06-20T07:12:43.122Z,70.30
2019-06-20T07:15:15.161Z,69.93
2019-06-20T07:17:46.458Z,70.87
2019-06-20T07:20:18.149Z,70.64
2019-06-20T07:22:49.351Z,69.63
2019-06-20T07:25:22.309Z,69.81
2019-06-20T07:27:53.660Z,69.68
2019-06-20T07:30:25.244Z,69.52
2019-06-20T07:32:56.384Z,68.94
2019-06-20T07:35:27.620Z,67.79
2019-06-20T07:37:58.801Z,68.22
2019-06-20T07:40:29.984Z,68.45
2019-06-20T07:43:01.058Z,68.91
2019-06-20T07:45:32.329Z,68.52
2019-06-20T07:48:03.356Z,68.47
2019-06-20T07:50:34.435Z,68.69
2019-06-20T07:53:06.094Z,69.75
2019-06-20T07:55:37.091Z,68.63
2019-06-20T07:58:08.187Z,67.96
2019-06-20T08:00:39.406Z,67.94
2019-06-20T08:03:10.524Z,67.28
2019-06-20T08:05:41.718Z,67.41
2019-06-20T08:08:12.772Z,67.42
2019-06-20T08:10:45.443Z,67.23
2019-06-20T08:13:16.587Z,68.63
2019-06-20T08:15:47.763Z,68.23
2019-06-20T08:18:19.227Z,68.24
2019-06-20T08:20:50.429Z,66.45
2019-06-20T08:23:21.555Z,62.52
2019-06-20T08:25:53.936Z,63.52
2019-06-20T08:28:26.248Z,63.72
2019-06-20T08:30:58.892Z,62.59
2019-06-20T08:33:30.101Z,64.56
2019-06-20T08:36:02.321Z,65.39
2019-06-20T08:38:33.368Z,66.52
2019-06-20T08:41:04.857Z,65.86
2019-06-20T08:43:37.319Z,65.73
2019-06-20T08:46:10.467Z,64.48
2019-06-20T08:48:41.650Z,63.30
2019-06-20T08:51:14.698Z,63.59
2019-06-20T08:53:45.571Z,64.27
2019-06-20T08:56:16.868Z,63.27
2019-06-20T08:58:47.919Z,58.36
2019-06-20T09:01:19.358Z,59.78
2019-06-20T09:03:50.824Z,61.12
2019-06-20T09:06:22.769Z,61.04
2019-06-20T09:08:55.454Z,61.38
2019-06-20T09:11:26.865Z,60.82
2019-06-20T09:13:59.018Z,59.79
2019-06-20T09:16:30.360Z,59.85
2019-06-20T09:19:02.612Z,58.76
2019-06-20T09:21:33.824Z,59.38
2019-06-20T09:24:05.143Z,57.80
2019-06-20T09:26:37.177Z,58.65
2019-06-20T09:29:08.279Z,58.74
2019-06-20T09:31:39.427Z,58.47
2019-06-20T09:34:10.527Z,59.86
2019-06-20T09:36:41.673Z,57.64
2019-06-20T09:39:12.901Z,57.29
2019-06-20T09:41:44.013Z,56.93
2019-06-20T09:44:15.472Z,59.00
2019-06-20T09:46:46.526Z,59.90
2019-06-20T09:49:17.763Z,58.90
2019-06-20T09:51:50.266Z,59.51
2019-06-20T09:54:21.476Z,59.90
2019-06-20T09:56:55.397Z,61.07
2019-06-20T09:59:27.992Z,62.29
2019-06-20T10:02:00.349Z,62.39
2019-06-20T10:04:31.643Z,63.01
2019-06-20T10:07:03.931Z,62.83
2019-06-20T10:09:35.056Z,62.25
2019-06-20T10:12:06.271Z,62.32
2019-06-20T10:14:37.335Z,62.82
2019-06-20T10:17:08.527Z,61.90
2019-06-20T10:19:39.829Z,62.09
2019-06-20T10:22:11.098Z,61.50
2019-06-20T10:24:42.155Z,60.25
2019-06-20T10:27:13.533Z,60.04
2019-06-20T10:29:46.196Z,61.69
2019-06-20T10:32:17.782Z,62.27
2019-06-20T10:34:48.978Z,62.18
2019-06-20T10:37:20.380Z,62.14
2019-06-20T10:39:52.092Z,62.31
2019-06-20T10:42:23.406Z,62.53
2019-06-20T10:44:54.500Z,61.79
2019-06-20T10:47:32.610Z,61.86
2019-06-20T10:49:59.655Z,62.73
2019-06-20T10:52:30.840Z,62.29
2019-06-20T10:55:01.972Z,61.92
2019-06-20T10:57:33.178Z,62.30
2019-06-20T11:00:07.402Z,62.74
2019-06-20T11:02:38.562Z,63.56
2019-06-20T11:05:10.092Z,63.51
2019-06-20T11:07:42.470Z,63.51
2019-06-20T11:10:14.930Z,63.12
2019-06-20T11:12:52.402Z,63.40
2019-06-20T11:15:21.375Z,64.04
2019-06-20T11:17:55.954Z,64.72
2019-06-20T11:20:25.497Z,63.12
2019-06-20T11:22:56.700Z,63.96
2019-06-20T11:25:28.068Z,63.82
2019-06-20T11:27:59.227Z,63.52
2019-06-20T11:30:45.039Z,63.91
2019-06-20T11:33:05.866Z,63.78
2019-06-20T11:35:37.777Z,62.09
2019-06-20T11:38:09.216Z,61.39
2019-06-20T11:40:41.565Z,62.02
2019-06-20T11:43:12.739Z,62.42
2019-06-20T11:45:43.872Z,62.81
2019-06-20T11:48:15.000Z,63.37
2019-06-20T11:50:46.518Z,64.27
2019-06-20T11:53:18.199Z,64.81
2019-06-20T11:55:49.580Z,63.91
2019-06-20T11:58:23.427Z,64.18
2019-06-20T12:01:03.473Z,63.98
2019-06-20T12:03:27.346Z,63.02
2019-06-20T12:05:58.423Z,62.31
2019-06-20T12:08:30.638Z,63.31
2019-06-20T12:11:01.902Z,62.36
2019-06-20T12:13:34.310Z,61.92
2019-06-20T12:16:06.888Z,62.36
2019-06-20T12:18:39.912Z,62.42
2019-06-20T12:21:11.325Z,62.92
2019-06-20T12:23:42.618Z,62.63
2019-06-20T12:26:13.831Z,62.71
2019-06-20T12:28:46.619Z,62.41
2019-06-20T12:31:19.857Z,62.07
2019-06-20T12:33:50.675Z,61.93
2019-06-20T12:36:21.903Z,62.14
2019-06-20T12:38:53.042Z,62.00
2019-06-20T12:41:24.096Z,62.30
2019-06-20T12:43:55.253Z,62.97
2019-06-20T12:46:26.290Z,63.76
2019-06-20T12:48:57.348Z,63.89
2019-06-20T12:51:28.456Z,64.90
2019-06-20T12:53:59.591Z,64.22
2019-06-20T12:56:30.676Z,65.76
2019-06-20T12:59:01.729Z,65.59
2019-06-20T13:01:38.916Z,66.74
2019-06-20T13:04:06.000Z,68.23
2019-06-20T13:06:37.702Z,69.71
2019-06-20T13:09:10.363Z,69.79
2019-06-20T13:11:42.637Z,69.11
2019-06-20T13:14:13.919Z,69.99
2019-06-20T13:16:46.031Z,69.84
2019-06-20T13:19:17.205Z,70.46
2019-06-20T13:21:48.595Z,70.95
2019-06-20T13:24:19.801Z,70.94
2019-06-20T13:26:50.854Z,71.05
2019-06-20T13:29:23.107Z,69.32
2019-06-20T13:32:03.929Z,69.91
2019-06-20T13:34:27.564Z,70.23
2019-06-20T13:36:58.757Z,70.29
2019-06-20T13:39:29.812Z,68.08
2019-06-20T13:42:01.156Z,67.34
2019-06-20T13:44:33.136Z,69.09
2019-06-20T13:47:04.234Z,68.78
2019-06-20T13:49:35.267Z,68.83
2019-06-20T13:52:06.365Z,66.98
2019-06-20T13:54:37.385Z,66.71
2019-06-20T13:57:08.495Z,66.06
2019-06-20T13:59:40.265Z,65.74
2019-06-20T14:02:12.587Z,66.20
2019-06-20T14:04:44.484Z,66.82
2019-06-20T14:07:15.510Z,66.74
2019-06-20T14:09:48.482Z,68.12
2019-06-20T14:12:19.804Z,67.14
2019-06-20T14:14:52.172Z,67.24
2019-06-20T14:17:23.417Z,66.83
2019-06-20T14:19:56.540Z,65.61
2019-06-20T14:22:27.774Z,65.25
2019-06-20T14:24:58.970Z,65.72
2019-06-20T14:27:30.407Z,65.72
2019-06-20T14:30:01.962Z,66.42
2019-06-20T14:32:33.932Z,67.03
2019-06-20T14:35:05.175Z,66.70
2019-06-20T14:37:36.297Z,66.97
2019-06-20T14:40:07.608Z,66.31
2019-06-20T14:42:38.800Z,66.68
2019-06-20T14:45:10.232Z,67.22
2019-06-20T14:47:41.303Z,67.15
2019-06-20T14:50:13.324Z,66.77
2019-06-20T14:52:47.732Z,66.50
2019-06-20T14:55:18.988Z,66.24
2019-06-20T14:57:50.546Z,66.42
2019-06-20T15:00:22.582Z,65.51
2019-06-20T15:02:58.077Z,65.16
2019-06-20T15:05:26.474Z,64.99
2019-06-20T15:07:57.572Z,64.63
2019-06-20T15:10:28.663Z,64.67
2019-06-20T15:12:59.822Z,65.20
2019-06-20T15:15:31.687Z,64.84
2019-06-20T15:18:02.804Z,64.55
2019-06-20T15:20:33.922Z,64.20
2019-06-20T15:23:05.026Z,63.80
2019-06-20T15:25:36.110Z,63.34
2019-06-20T15:28:07.718Z,63.67
2019-06-20T15:30:38.837Z,64.02
2019-06-20T15:33:10.667Z,63.98
2019-06-20T15:35:45.103Z,63.77
2019-06-20T15:38:16.185Z,63.99
2019-06-20T15:40:48.439Z,64.46
2019-06-20T15:43:20.154Z,64.72
2019-06-20T15:45:52.078Z,64.78
2019-06-20T15:48:23.274Z,64.40
2019-06-20T15:50:55.205Z,64.79
2019-06-20T15:53:26.256Z,64.45
2019-06-20T15:55:57.443Z,63.83
2019-06-20T15:58:28.465Z,64.53
2019-06-20T16:00:59.512Z,65.31
2019-06-20T16:03:30.550Z,66.00
2019-06-20T16:06:01.623Z,67.23
2019-06-20T16:08:32.675Z,67.44
2019-06-20T16:11:03.912Z,67.14
2019-06-20T16:13:35.041Z,67.38
2019-06-20T16:16:06.286Z,65.95
2019-06-20T16:18:38.315Z,65.84
2019-06-20T16:21:09.418Z,66.15
2019-06-20T16:23:40.607Z,66.47
2019-06-20T16:26:11.639Z,66.79
2019-06-20T16:28:42.684Z,66.64
2019-06-20T16:31:26.302Z,66.07
2019-06-20T16:33:46.599Z,64.72
2019-06-20T16:36:17.661Z,65.12
2019-06-20T16:38:48.778Z,65.96
2019-06-20T16:41:19.923Z,65.90
2019-06-20T16:43:50.958Z,64.73
2019-06-20T16:46:21.984Z,64.77
2019-06-20T16:48:53.089Z,65.41
2019-06-20T16:51:24.193Z,65.43
2019-06-20T16:53:55.397Z,65.87
2019-06-20T16:56:27.653Z,64.75
2019-06-20T16:58:59.770Z,63.51
2019-06-20T17:01:30.842Z,63.58
2019-06-20T17:04:02.158Z,64.41
2019-06-20T17:06:33.263Z,63.99
2019-06-20T17:09:06.955Z,64.34
2019-06-20T17:11:38.439Z,64.25
2019-06-20T17:14:09.817Z,64.46
2019-06-20T17:16:41.059Z,64.87
2019-06-20T17:19:12.196Z,64.95
2019-06-20T17:21:43.358Z,64.53
2019-06-20T17:24:15.336Z,64.08
2019-06-20T17:26:46.348Z,63.82
2019-06-20T17:29:17.398Z,63.52
2019-06-20T17:31:48.751Z,64.25
2019-06-20T17:34:19.789Z,65.00
2019-06-20T17:36:50.880Z,65.23
2019-06-20T17:39:22.010Z,65.11
2019-06-20T17:41:55.442Z,64.68
2019-06-20T17:44:27.533Z,63.64
2019-06-20T17:46:58.903Z,63.87
2019-06-20T17:49:29.906Z,63.91
2019-06-20T17:52:00.991Z,64.79
2019-06-20T17:54:32.617Z,64.82
2019-06-20T17:57:03.798Z,63.93
2019-06-20T17:59:34.790Z,61.77
2019-06-20T18:02:05.842Z,61.72
2019-06-20T18:04:36.918Z,61.76
2019-06-20T18:07:08.141Z,61.16
2019-06-20T18:09:39.194Z,61.17
2019-06-20T18:12:12.151Z,59.91
2019-06-20T18:14:44.171Z,59.48
2019-06-20T18:17:15.319Z,60.29
2019-06-20T18:19:46.435Z,60.56
2019-06-20T18:22:17.577Z,60.31
2019-06-20T18:24:48.742Z,61.03
2019-06-20T18:27:19.922Z,61.04
2019-06-20T18:29:50.969Z,60.37
2019-06-20T18:32:22.096Z,60.67
2019-06-20T18:35:01.756Z,60.71
2019-06-20T18:37:31.379Z,61.67
2019-06-20T18:39:59.481Z,61.89
2019-06-20T18:42:30.540Z,62.91
2019-06-20T18:45:01.718Z,62.37
2019-06-20T18:47:32.720Z,62.51
2019-06-20T18:50:05.517Z,62.43
2019-06-20T18:52:51.038Z,62.38
2019-06-20T18:55:10.132Z,62.71
2019-06-20T18:57:41.224Z,62.05
2019-06-20T19:00:13.314Z,62.00
2019-06-20T19:02:44.415Z,61.11
2019-06-20T19:05:15.699Z,61.82
2019-06-20T19:07:46.832Z,61.89
2019-06-20T19:10:22.981Z,62.46
2019-06-20T19:12:54.091Z,61.80
2019-06-20T19:15:26.071Z,63.12
2019-06-20T19:17:57.630Z,62.92
2019-06-20T19:20:28.776Z,62.75
2019-06-20T19:23:00.158Z,62.83
2019-06-20T19:25:31.297Z,62.38
2019-06-20T19:28:02.457Z,61.85
2019-06-20T19:30:48.326Z,61.84
2019-06-20T19:33:19.760Z,61.86
2019-06-20T19:35:55.054Z,62.39
2019-06-20T19:38:26.121Z,62.66
2019-06-20T19:40:58.224Z,62.17
2019-06-20T19:43:29.635Z,62.40
2019-06-20T19:46:00.750Z,62.29
2019-06-20T19:48:32.305Z,61.92
2019-06-20T19:51:03.753Z,62.09
2019-06-20T19:53:35.893Z,61.80
2019-06-20T19:56:07.179Z,61.64
2019-06-20T19:58:38.777Z,61.61
2019-06-20T20:01:09.984Z,61.98
2019-06-20T20:03:41.171Z,61.71
2019-06-20T20:06:12.290Z,61.51
2019-06-20T20:08:43.560Z,60.94
2019-06-20T20:11:14.602Z,60.93
2019-06-20T20:13:45.821Z,61.03
2019-06-20T20:16:17.067Z,61.17
2019-06-20T20:18:48.322Z,61.77
2019-06-20T20:21:19.378Z,61.61
2019-06-20T20:23:50.512Z,61.69
2019-06-20T20:26:21.581Z,61.69
2019-06-20T20:28:52.754Z,61.78
2019-06-20T20:31:24.070Z,62.10
2019-06-20T20:33:55.941Z,62.46
2019-06-20T20:36:27.169Z,62.71
2019-06-20T20:38:58.228Z,62.28
2019-06-20T20:41:29.289Z,63.10
2019-06-20T20:44:00.300Z,63.37
2019-06-20T20:46:31.349Z,63.41
2019-06-20T20:49:02.354Z,63.05
2019-06-20T20:51:33.446Z,62.79
2019-06-20T20:54:04.531Z,62.69
2019-06-20T20:56:35.691Z,62.68
2019-06-20T20:59:06.820Z,62.92
2019-06-20T21:01:39.019Z,62.86
2019-06-20T21:04:10.066Z,63.07
2019-06-20T21:06:41.092Z,62.81
2019-06-20T21:09:12.255Z,62.90
2019-06-20T21:11:43.348Z,62.64
2019-06-20T21:14:14.369Z,63.10
2019-06-20T21:16:45.416Z,63.44
2019-06-20T21:19:16.534Z,64.60
2019-06-20T21:21:48.058Z,65.69
2019-06-20T21:24:19.121Z,65.28
2019-06-20T21:26:50.373Z,64.64
2019-06-20T21:29:21.486Z,65.32
2019-06-20T21:31:52.534Z,65.04
2019-06-20T21:34:23.586Z,64.65
2019-06-20T21:41:01.571Z,64.92
2019-06-20T21:43:32.884Z,65.24
2019-06-20T21:46:06.761Z,65.10
2019-06-20T21:48:37.084Z,65.16
2019-06-20T21:51:09.100Z,65.18
2019-06-20T21:53:40.483Z,65.30
2019-06-20T21:56:11.547Z,65.65
2019-06-20T21:58:42.649Z,65.28
2019-06-20T22:01:14.601Z,65.23
2019-06-20T22:03:45.989Z,65.51
2019-06-20T22:06:23.908Z,65.64
2019-06-20T22:08:49.909Z,65.62
2019-06-20T22:11:21.130Z,65.80
2019-06-20T22:13:52.294Z,66.07
2019-06-20T22:16:23.452Z,66.42
2019-06-20T22:18:54.594Z,66.39
2019-06-20T22:21:25.786Z,66.67
2019-06-20T22:23:57.153Z,66.85
2019-06-20T22:26:28.228Z,66.67
2019-06-20T22:28:59.263Z,66.61
2019-06-20T22:31:30.460Z,66.74
2019-06-20T22:34:01.516Z,66.29
2019-06-20T22:36:40.280Z,66.68
2019-06-20T22:39:07.957Z,66.37
2019-06-20T22:41:39.373Z,66.40
2019-06-20T22:44:10.540Z,66.46
2019-06-20T22:46:41.577Z,66.98
2019-06-20T22:49:12.610Z,67.18
2019-06-20T22:51:43.636Z,66.76
2019-06-20T22:54:14.636Z,66.49
2019-06-20T22:56:45.756Z,66.43
2019-06-20T22:59:17.061Z,66.05
2019-06-20T23:01:48.081Z,66.30
2019-06-20T23:04:19.130Z,66.54
2019-06-20T23:06:56.474Z,66.50
2019-06-20T23:09:22.973Z,66.50
2019-06-20T23:11:54.037Z,66.25
2019-06-20T23:14:26.125Z,65.94
2019-06-20T23:16:57.258Z,66.32
2019-06-20T23:19:28.306Z,66.28
2019-06-20T23:21:59.516Z,66.32
2019-06-20T23:24:30.561Z,66.29
2019-06-20T23:27:01.580Z,66.57
2019-06-20T23:29:32.583Z,66.40
2019-06-20T23:32:03.969Z,66.45
2019-06-20T23:34:35.022Z,66.18
2019-06-20T23:37:12.799Z,66.03
2019-06-20T23:39:39.489Z,66.15
2019-06-20T23:42:10.665Z,66.67
2019-06-20T23:44:41.691Z,66.40
2019-06-20T23:47:12.727Z,66.04
2019-06-20T23:49:43.735Z,65.77
2019-06-20T23:52:18.895Z,66.28
2019-06-20T23:54:50.005Z,66.56
2019-06-20T23:57:21.063Z,66.42
2019-06-20T23:59:52.149Z,66.42
